sensor_id;sensor_type;location;lat;lon;timestamp;temperature;humidity
37938;DHT22;23763;48.130;11.602;2024-01-25T00:00:49;9.10;99.90
37938;DHT22;23763;48.130;11.602;2024-01-25T00:03:15;9.00;99.90
37938;DHT22;23763;48.130;11.602;2024-01-25T00:05:40;9.10;99.90
37938;DHT22;23763;48.130;11.602;2024-01-25T00:08:06;9.00;99.90
37938;DHT22;23763;48.130;11.602;2024-01-25T00:10:32;9.00;99.90
37938;DHT22;23763;48.130;11.602;2024-01-25T00:12:57;9.00;99.90
37938;DHT22;23763;48.130;11.602;2024-01-25T00:15:23;9.00;99.90
37938;DHT22;23763;48.130;11.602;2024-01-25T00:17:48;9.00;99.90
37938;DHT22;23763;48.130;11.602;2024-01-25T00:20:15;8.90;99.90
37938;DHT22;23763;48.130;11.602;2024-01-25T00:22:40;9.00;99.90
37938;DHT22;23763;48.130;11.602;2024-01-25T00:25:07;9.00;99.90
37938;DHT22;23763;48.130;11.602;2024-01-25T00:27:33;9.00;99.90
37938;DHT22;23763;48.130;11.602;2024-01-25T00:29:58;8.90;99.90
37938;DHT22;23763;48.130;11.602;2024-01-25T00:32:24;8.90;99.90
37938;DHT22;23763;48.130;11.602;2024-01-25T00:34:50;8.90;99.90
37938;DHT22;23763;48.130;11.602;2024-01-25T00:37:16;8.90;99.90
37938;DHT22;23763;48.130;11.602;2024-01-25T00:39:42;8.90;99.90
37938;DHT22;23763;48.130;11.602;2024-01-25T00:42:07;9.00;99.90
37938;DHT22;23763;48.130;11.602;2024-01-25T00:44:37;9.00;99.90
37938;DHT22;23763;48.130;11.602;2024-01-25T00:47:03;9.00;99.90
37938;DHT22;23763;48.130;11.602;2024-01-25T00:49:29;9.00;99.90
37938;DHT22;23763;48.130;11.602;2024-01-25T00:51:59;9.00;99.90
37938;DHT22;23763;48.130;11.602;2024-01-25T00:54:25;9.00;99.90
37938;DHT22;23763;48.130;11.602;2024-01-25T00:56:51;9.00;99.90
37938;DHT22;23763;48.130;11.602;2024-01-25T00:59:19;9.00;99.90
37938;DHT22;23763;48.130;11.602;2024-01-25T01:01:46;9.00;99.90
37938;DHT22;23763;48.130;11.602;2024-01-25T01:04:12;9.00;99.90
37938;DHT22;23763;48.130;11.602;2024-01-25T01:06:38;9.00;99.90
37938;DHT22;23763;48.130;11.602;2024-01-25T01:09:04;9.10;99.90
37938;DHT22;23763;48.130;11.602;2024-01-25T01:11:30;9.10;99.90
37938;DHT22;23763;48.130;11.602;2024-01-25T01:13:56;9.10;99.90
37938;DHT22;23763;48.130;11.602;2024-01-25T01:16:21;9.10;99.90
37938;DHT22;23763;48.130;11.602;2024-01-25T01:18:47;9.10;99.90
37938;DHT22;23763;48.130;11.602;2024-01-25T01:21:13;9.20;99.90
37938;DHT22;23763;48.130;11.602;2024-01-25T01:23:38;9.20;99.90
37938;DHT22;23763;48.130;11.602;2024-01-25T01:26:04;9.20;99.90
37938;DHT22;23763;48.130;11.602;2024-01-25T01:28:30;9.20;99.90
37938;DHT22;23763;48.130;11.602;2024-01-25T01:30:55;9.20;99.90
37938;DHT22;23763;48.130;11.602;2024-01-25T01:33:21;9.20;99.90
37938;DHT22;23763;48.130;11.602;2024-01-25T01:35:47;9.20;99.90
37938;DHT22;23763;48.130;11.602;2024-01-25T01:38:12;9.10;99.90
37938;DHT22;23763;48.130;11.602;2024-01-25T01:40:38;9.20;99.90
37938;DHT22;23763;48.130;11.602;2024-01-25T01:43:03;9.10;99.90
37938;DHT22;23763;48.130;11.602;2024-01-25T01:45:29;9.20;99.90
37938;DHT22;23763;48.130;11.602;2024-01-25T01:47:56;9.10;99.90
37938;DHT22;23763;48.130;11.602;2024-01-25T01:50:22;9.10;99.90
37938;DHT22;23763;48.130;11.602;2024-01-25T01:52:49;9.10;99.90
37938;DHT22;23763;48.130;11.602;2024-01-25T01:55:16;9.10;99.90
37938;DHT22;23763;48.130;11.602;2024-01-25T01:57:42;9.10;99.90
37938;DHT22;23763;48.130;11.602;2024-01-25T02:00:09;9.10;99.90
37938;DHT22;23763;48.130;11.602;2024-01-25T02:02:35;9.10;99.90
37938;DHT22;23763;48.130;11.602;2024-01-25T02:05:01;9.20;99.90
37938;DHT22;23763;48.130;11.602;2024-01-25T02:07:28;9.10;99.90
37938;DHT22;23763;48.130;11.602;2024-01-25T02:09:53;9.10;99.90
37938;DHT22;23763;48.130;11.602;2024-01-25T02:12:19;9.10;99.90
37938;DHT22;23763;48.130;11.602;2024-01-25T02:14:45;9.10;99.90
37938;DHT22;23763;48.130;11.602;2024-01-25T02:17:11;9.20;99.90
37938;DHT22;23763;48.130;11.602;2024-01-25T02:19:37;9.20;99.90
37938;DHT22;23763;48.130;11.602;2024-01-25T02:22:04;9.10;99.90
37938;DHT22;23763;48.130;11.602;2024-01-25T02:24:31;9.10;99.90
37938;DHT22;23763;48.130;11.602;2024-01-25T02:26:56;9.10;99.90
37938;DHT22;23763;48.130;11.602;2024-01-25T02:29:22;9.10;99.90
37938;DHT22;23763;48.130;11.602;2024-01-25T02:31:48;9.10;99.90
37938;DHT22;23763;48.130;11.602;2024-01-25T02:34:13;9.20;99.90
37938;DHT22;23763;48.130;11.602;2024-01-25T02:36:39;9.10;99.90
37938;DHT22;23763;48.130;11.602;2024-01-25T02:39:05;9.10;99.90
37938;DHT22;23763;48.130;11.602;2024-01-25T02:41:31;9.10;99.90
37938;DHT22;23763;48.130;11.602;2024-01-25T02:43:57;9.10;99.90
37938;DHT22;23763;48.130;11.602;2024-01-25T02:46:23;9.00;99.90
37938;DHT22;23763;48.130;11.602;2024-01-25T02:48:49;9.00;99.90
37938;DHT22;23763;48.130;11.602;2024-01-25T02:51:14;9.10;99.90
37938;DHT22;23763;48.130;11.602;2024-01-25T02:53:41;9.10;99.90
37938;DHT22;23763;48.130;11.602;2024-01-25T02:56:06;9.10;99.90
37938;DHT22;23763;48.130;11.602;2024-01-25T02:58:32;9.20;99.90
37938;DHT22;23763;48.130;11.602;2024-01-25T03:00:58;9.20;99.90
37938;DHT22;23763;48.130;11.602;2024-01-25T03:03:24;9.20;99.90
37938;DHT22;23763;48.130;11.602;2024-01-25T03:05:51;9.20;99.90
37938;DHT22;23763;48.130;11.602;2024-01-25T03:08:16;9.20;99.90
37938;DHT22;23763;48.130;11.602;2024-01-25T03:10:42;9.20;99.90
37938;DHT22;23763;48.130;11.602;2024-01-25T03:13:08;9.20;99.90
37938;DHT22;23763;48.130;11.602;2024-01-25T03:15:33;9.20;99.90
37938;DHT22;23763;48.130;11.602;2024-01-25T03:17:59;9.10;99.90
37938;DHT22;23763;48.130;11.602;2024-01-25T03:20:24;9.00;99.90
37938;DHT22;23763;48.130;11.602;2024-01-25T03:22:50;9.00;99.90
37938;DHT22;23763;48.130;11.602;2024-01-25T03:25:16;9.10;99.90
37938;DHT22;23763;48.130;11.602;2024-01-25T03:27:41;9.00;99.90
37938;DHT22;23763;48.130;11.602;2024-01-25T03:30:07;9.00;99.90
37938;DHT22;23763;48.130;11.602;2024-01-25T03:32:34;9.00;99.90
37938;DHT22;23763;48.130;11.602;2024-01-25T03:34:59;9.00;99.90
37938;DHT22;23763;48.130;11.602;2024-01-25T03:37:25;9.00;99.90
37938;DHT22;23763;48.130;11.602;2024-01-25T03:39:51;9.10;99.90
37938;DHT22;23763;48.130;11.602;2024-01-25T03:42:17;9.00;99.90
37938;DHT22;23763;48.130;11.602;2024-01-25T03:44:42;9.10;99.90
37938;DHT22;23763;48.130;11.602;2024-01-25T03:47:10;9.10;99.90
37938;DHT22;23763;48.130;11.602;2024-01-25T03:49:36;9.00;99.90
37938;DHT22;23763;48.130;11.602;2024-01-25T03:52:03;8.90;99.90
37938;DHT22;23763;48.130;11.602;2024-01-25T03:54:28;8.90;99.90
37938;DHT22;23763;48.130;11.602;2024-01-25T03:56:54;9.00;99.90
37938;DHT22;23763;48.130;11.602;2024-01-25T03:59:19;9.00;99.90
37938;DHT22;23763;48.130;11.602;2024-01-25T04:01:45;9.00;99.90
37938;DHT22;23763;48.130;11.602;2024-01-25T04:04:13;9.00;99.90
37938;DHT22;23763;48.130;11.602;2024-01-25T04:06:41;8.90;99.90
37938;DHT22;23763;48.130;11.602;2024-01-25T04:09:11;8.90;99.90
37938;DHT22;23763;48.130;11.602;2024-01-25T04:11:37;8.90;99.90
37938;DHT22;23763;48.130;11.602;2024-01-25T04:14:04;8.90;99.90
37938;DHT22;23763;48.130;11.602;2024-01-25T04:16:30;8.90;99.90
37938;DHT22;23763;48.130;11.602;2024-01-25T04:18:56;9.00;99.90
37938;DHT22;23763;48.130;11.602;2024-01-25T04:21:21;8.90;99.90
37938;DHT22;23763;48.130;11.602;2024-01-25T04:23:47;8.90;99.90
37938;DHT22;23763;48.130;11.602;2024-01-25T04:26:14;9.00;99.90
37938;DHT22;23763;48.130;11.602;2024-01-25T04:28:39;8.90;99.90
37938;DHT22;23763;48.130;11.602;2024-01-25T04:31:05;9.00;99.90
37938;DHT22;23763;48.130;11.602;2024-01-25T04:33:30;9.00;99.90
37938;DHT22;23763;48.130;11.602;2024-01-25T04:35:56;9.00;99.90
37938;DHT22;23763;48.130;11.602;2024-01-25T04:38:22;8.90;99.90
37938;DHT22;23763;48.130;11.602;2024-01-25T04:40:47;8.90;99.90
37938;DHT22;23763;48.130;11.602;2024-01-25T04:43:13;8.90;99.90
37938;DHT22;23763;48.130;11.602;2024-01-25T04:45:39;8.80;99.90
37938;DHT22;23763;48.130;11.602;2024-01-25T04:48:05;8.80;99.90
37938;DHT22;23763;48.130;11.602;2024-01-25T04:50:31;8.80;99.90
37938;DHT22;23763;48.130;11.602;2024-01-25T04:52:57;8.80;99.90
37938;DHT22;23763;48.130;11.602;2024-01-25T04:55:23;8.80;99.90
37938;DHT22;23763;48.130;11.602;2024-01-25T04:57:48;8.90;99.90
37938;DHT22;23763;48.130;11.602;2024-01-25T05:00:19;8.80;99.90
37938;DHT22;23763;48.130;11.602;2024-01-25T05:02:44;8.80;99.90
37938;DHT22;23763;48.130;11.602;2024-01-25T05:05:10;8.80;99.90
37938;DHT22;23763;48.130;11.602;2024-01-25T05:07:35;8.80;99.90
37938;DHT22;23763;48.130;11.602;2024-01-25T05:10:01;8.80;99.90
37938;DHT22;23763;48.130;11.602;2024-01-25T05:12:27;8.80;99.90
37938;DHT22;23763;48.130;11.602;2024-01-25T05:14:53;8.80;99.90
37938;DHT22;23763;48.130;11.602;2024-01-25T05:17:18;8.80;99.90
37938;DHT22;23763;48.130;11.602;2024-01-25T05:19:44;8.70;99.90
37938;DHT22;23763;48.130;11.602;2024-01-25T05:22:10;8.70;99.90
37938;DHT22;23763;48.130;11.602;2024-01-25T05:24:36;8.70;99.90
37938;DHT22;23763;48.130;11.602;2024-01-25T05:27:01;8.70;99.90
37938;DHT22;23763;48.130;11.602;2024-01-25T05:29:27;8.70;99.90
37938;DHT22;23763;48.130;11.602;2024-01-25T05:31:53;8.70;99.90
37938;DHT22;23763;48.130;11.602;2024-01-25T05:34:18;8.70;99.90
37938;DHT22;23763;48.130;11.602;2024-01-25T05:36:44;8.70;99.90
37938;DHT22;23763;48.130;11.602;2024-01-25T05:39:10;8.70;99.90
37938;DHT22;23763;48.130;11.602;2024-01-25T05:41:35;8.70;99.90
37938;DHT22;23763;48.130;11.602;2024-01-25T05:44:01;8.70;99.90
37938;DHT22;23763;48.130;11.602;2024-01-25T05:46:27;8.70;99.90
37938;DHT22;23763;48.130;11.602;2024-01-25T05:48:52;8.70;99.90
37938;DHT22;23763;48.130;11.602;2024-01-25T05:51:18;8.60;99.90
37938;DHT22;23763;48.130;11.602;2024-01-25T05:53:44;8.70;99.90
37938;DHT22;23763;48.130;11.602;2024-01-25T05:56:09;8.70;99.90
37938;DHT22;23763;48.130;11.602;2024-01-25T05:58:35;8.70;99.90
37938;DHT22;23763;48.130;11.602;2024-01-25T06:01:03;8.70;99.90
37938;DHT22;23763;48.130;11.602;2024-01-25T06:03:29;8.60;99.90
37938;DHT22;23763;48.130;11.602;2024-01-25T06:05:55;8.70;99.90
37938;DHT22;23763;48.130;11.602;2024-01-25T06:08:21;8.60;99.90
37938;DHT22;23763;48.130;11.602;2024-01-25T06:10:46;8.60;99.90
37938;DHT22;23763;48.130;11.602;2024-01-25T06:13:12;8.60;99.90
37938;DHT22;23763;48.130;11.602;2024-01-25T06:15:38;8.60;99.90
37938;DHT22;23763;48.130;11.602;2024-01-25T06:18:04;8.50;99.90
37938;DHT22;23763;48.130;11.602;2024-01-25T06:20:30;8.50;99.90
37938;DHT22;23763;48.130;11.602;2024-01-25T06:22:55;8.50;99.90
37938;DHT22;23763;48.130;11.602;2024-01-25T06:25:21;8.50;99.90
37938;DHT22;23763;48.130;11.602;2024-01-25T06:27:47;8.50;99.90
37938;DHT22;23763;48.130;11.602;2024-01-25T06:30:14;8.50;99.90
37938;DHT22;23763;48.130;11.602;2024-01-25T06:32:40;8.50;99.90
37938;DHT22;23763;48.130;11.602;2024-01-25T06:35:08;8.50;99.90
37938;DHT22;23763;48.130;11.602;2024-01-25T06:37:35;8.50;99.90
37938;DHT22;23763;48.130;11.602;2024-01-25T06:40:00;8.50;99.90
37938;DHT22;23763;48.130;11.602;2024-01-25T06:42:26;8.30;99.90
37938;DHT22;23763;48.130;11.602;2024-01-25T06:44:52;8.30;99.90
37938;DHT22;23763;48.130;11.602;2024-01-25T06:47:17;8.20;99.90
37938;DHT22;23763;48.130;11.602;2024-01-25T06:49:43;8.20;99.90
37938;DHT22;23763;48.130;11.602;2024-01-25T06:52:08;8.20;99.90
37938;DHT22;23763;48.130;11.602;2024-01-25T06:54:34;8.20;99.90
37938;DHT22;23763;48.130;11.602;2024-01-25T06:57:00;8.20;99.90
37938;DHT22;23763;48.130;11.602;2024-01-25T06:59:25;8.10;99.90
37938;DHT22;23763;48.130;11.602;2024-01-25T07:01:51;8.10;99.90
37938;DHT22;23763;48.130;11.602;2024-01-25T07:04:16;8.10;99.90
37938;DHT22;23763;48.130;11.602;2024-01-25T07:06:42;8.00;99.90
37938;DHT22;23763;48.130;11.602;2024-01-25T07:09:08;8.00;99.90
37938;DHT22;23763;48.130;11.602;2024-01-25T07:11:33;8.00;99.90
37938;DHT22;23763;48.130;11.602;2024-01-25T07:13:59;8.00;99.90
37938;DHT22;23763;48.130;11.602;2024-01-25T07:16:25;8.00;99.90
37938;DHT22;23763;48.130;11.602;2024-01-25T07:18:50;8.00;99.90
37938;DHT22;23763;48.130;11.602;2024-01-25T07:21:19;8.00;99.90
37938;DHT22;23763;48.130;11.602;2024-01-25T07:23:44;8.10;99.90
37938;DHT22;23763;48.130;11.602;2024-01-25T07:26:17;8.10;99.90
37938;DHT22;23763;48.130;11.602;2024-01-25T07:28:42;8.20;99.90
37938;DHT22;23763;48.130;11.602;2024-01-25T07:31:08;8.30;99.90
37938;DHT22;23763;48.130;11.602;2024-01-25T07:33:33;8.30;99.90
37938;DHT22;23763;48.130;11.602;2024-01-25T07:35:59;8.40;99.90
37938;DHT22;23763;48.130;11.602;2024-01-25T07:38:25;8.40;99.90
37938;DHT22;23763;48.130;11.602;2024-01-25T07:40:50;8.40;99.90
37938;DHT22;23763;48.130;11.602;2024-01-25T07:43:17;8.40;99.90
37938;DHT22;23763;48.130;11.602;2024-01-25T07:45:43;8.40;99.90
37938;DHT22;23763;48.130;11.602;2024-01-25T07:48:09;8.40;99.90
37938;DHT22;23763;48.130;11.602;2024-01-25T07:50:34;8.40;99.90
37938;DHT22;23763;48.130;11.602;2024-01-25T07:53:00;8.40;99.90
37938;DHT22;23763;48.130;11.602;2024-01-25T07:55:27;8.50;99.90
37938;DHT22;23763;48.130;11.602;2024-01-25T07:57:55;8.50;99.90
37938;DHT22;23763;48.130;11.602;2024-01-25T08:00:20;8.50;99.90
37938;DHT22;23763;48.130;11.602;2024-01-25T08:02:46;8.50;99.90
37938;DHT22;23763;48.130;11.602;2024-01-25T08:05:12;8.60;99.90
37938;DHT22;23763;48.130;11.602;2024-01-25T08:07:37;8.60;99.90
37938;DHT22;23763;48.130;11.602;2024-01-25T08:10:04;8.70;99.90
37938;DHT22;23763;48.130;11.602;2024-01-25T08:12:30;8.70;99.90
37938;DHT22;23763;48.130;11.602;2024-01-25T08:14:56;8.70;99.90
37938;DHT22;23763;48.130;11.602;2024-01-25T08:17:21;8.80;99.90
37938;DHT22;23763;48.130;11.602;2024-01-25T08:19:47;8.70;99.90
37938;DHT22;23763;48.130;11.602;2024-01-25T08:22:13;8.70;99.90
37938;DHT22;23763;48.130;11.602;2024-01-25T08:24:40;8.80;99.90
37938;DHT22;23763;48.130;11.602;2024-01-25T08:27:06;8.80;99.90
37938;DHT22;23763;48.130;11.602;2024-01-25T08:29:33;8.80;99.90
37938;DHT22;23763;48.130;11.602;2024-01-25T08:31:58;8.80;99.90
37938;DHT22;23763;48.130;11.602;2024-01-25T08:34:24;8.90;99.90
37938;DHT22;23763;48.130;11.602;2024-01-25T08:36:50;8.90;99.90
37938;DHT22;23763;48.130;11.602;2024-01-25T08:39:15;9.00;99.90
37938;DHT22;23763;48.130;11.602;2024-01-25T08:41:42;8.90;99.90
37938;DHT22;23763;48.130;11.602;2024-01-25T08:44:08;8.80;99.90
37938;DHT22;23763;48.130;11.602;2024-01-25T08:46:33;8.70;99.90
37938;DHT22;23763;48.130;11.602;2024-01-25T08:48:59;8.70;99.90
37938;DHT22;23763;48.130;11.602;2024-01-25T08:51:25;8.70;99.90
37938;DHT22;23763;48.130;11.602;2024-01-25T08:53:50;8.90;99.90
37938;DHT22;23763;48.130;11.602;2024-01-25T08:56:17;9.10;99.90
37938;DHT22;23763;48.130;11.602;2024-01-25T08:58:42;9.20;99.90
37938;DHT22;23763;48.130;11.602;2024-01-25T09:01:08;9.30;99.90
37938;DHT22;23763;48.130;11.602;2024-01-25T09:03:34;9.30;99.90
37938;DHT22;23763;48.130;11.602;2024-01-25T09:06:00;9.40;99.90
37938;DHT22;23763;48.130;11.602;2024-01-25T09:08:31;9.40;99.90
37938;DHT22;23763;48.130;11.602;2024-01-25T09:10:57;9.40;99.90
37938;DHT22;23763;48.130;11.602;2024-01-25T09:13:23;9.30;99.90
37938;DHT22;23763;48.130;11.602;2024-01-25T09:15:49;9.20;99.90
37938;DHT22;23763;48.130;11.602;2024-01-25T09:18:15;9.10;99.90
37938;DHT22;23763;48.130;11.602;2024-01-25T09:20:41;9.00;99.90
37938;DHT22;23763;48.130;11.602;2024-01-25T09:23:09;8.90;99.90
37938;DHT22;23763;48.130;11.602;2024-01-25T09:25:35;8.90;99.90
37938;DHT22;23763;48.130;11.602;2024-01-25T09:28:01;9.00;99.90
37938;DHT22;23763;48.130;11.602;2024-01-25T09:30:26;9.10;99.90
37938;DHT22;23763;48.130;11.602;2024-01-25T09:32:52;9.20;99.90
37938;DHT22;23763;48.130;11.602;2024-01-25T09:35:18;9.20;99.90
37938;DHT22;23763;48.130;11.602;2024-01-25T09:37:43;9.20;99.90
37938;DHT22;23763;48.130;11.602;2024-01-25T09:40:10;9.10;99.90
37938;DHT22;23763;48.130;11.602;2024-01-25T09:42:36;9.10;99.90
37938;DHT22;23763;48.130;11.602;2024-01-25T09:45:06;9.10;99.90
37938;DHT22;23763;48.130;11.602;2024-01-25T09:47:32;9.30;99.90
37938;DHT22;23763;48.130;11.602;2024-01-25T09:49:58;9.50;99.90
37938;DHT22;23763;48.130;11.602;2024-01-25T09:52:24;9.80;99.90
37938;DHT22;23763;48.130;11.602;2024-01-25T09:54:53;9.90;99.90
37938;DHT22;23763;48.130;11.602;2024-01-25T09:57:23;10.20;99.90
37938;DHT22;23763;48.130;11.602;2024-01-25T09:59:49;10.20;99.90
37938;DHT22;23763;48.130;11.602;2024-01-25T10:02:20;10.30;99.90
37938;DHT22;23763;48.130;11.602;2024-01-25T10:04:50;10.30;99.90
37938;DHT22;23763;48.130;11.602;2024-01-25T10:10:03;10.50;99.90
37938;DHT22;23763;48.130;11.602;2024-01-25T10:12:31;10.70;99.90
37938;DHT22;23763;48.130;11.602;2024-01-25T10:14:56;10.70;99.90
37938;DHT22;23763;48.130;11.602;2024-01-25T10:17:22;10.60;99.90
37938;DHT22;23763;48.130;11.602;2024-01-25T10:19:47;10.50;99.90
37938;DHT22;23763;48.130;11.602;2024-01-25T10:22:14;10.50;99.90
37938;DHT22;23763;48.130;11.602;2024-01-25T10:24:40;10.30;99.90
37938;DHT22;23763;48.130;11.602;2024-01-25T10:27:07;10.20;99.90
37938;DHT22;23763;48.130;11.602;2024-01-25T10:29:37;10.20;99.90
37938;DHT22;23763;48.130;11.602;2024-01-25T10:32:03;10.10;99.90
37938;DHT22;23763;48.130;11.602;2024-01-25T10:34:30;10.00;99.90
37938;DHT22;23763;48.130;11.602;2024-01-25T10:36:57;10.10;99.90
37938;DHT22;23763;48.130;11.602;2024-01-25T10:39:24;10.40;99.90
37938;DHT22;23763;48.130;11.602;2024-01-25T10:41:50;10.50;99.90
37938;DHT22;23763;48.130;11.602;2024-01-25T10:44:17;10.30;99.90
37938;DHT22;23763;48.130;11.602;2024-01-25T10:46:47;10.00;99.90
37938;DHT22;23763;48.130;11.602;2024-01-25T10:49:13;9.80;99.90
37938;DHT22;23763;48.130;11.602;2024-01-25T10:51:41;9.70;99.90
37938;DHT22;23763;48.130;11.602;2024-01-25T10:54:08;9.60;99.90
37938;DHT22;23763;48.130;11.602;2024-01-25T10:56:35;9.50;99.90
37938;DHT22;23763;48.130;11.602;2024-01-25T10:59:01;9.60;99.90
37938;DHT22;23763;48.130;11.602;2024-01-25T11:01:30;9.60;99.90
37938;DHT22;23763;48.130;11.602;2024-01-25T11:03:55;9.70;99.90
37938;DHT22;23763;48.130;11.602;2024-01-25T11:06:22;9.70;99.90
37938;DHT22;23763;48.130;11.602;2024-01-25T11:08:48;9.70;99.90
37938;DHT22;23763;48.130;11.602;2024-01-25T11:11:14;9.70;99.90
37938;DHT22;23763;48.130;11.602;2024-01-25T11:13:44;9.70;99.90
37938;DHT22;23763;48.130;11.602;2024-01-25T11:16:31;9.60;99.90
37938;DHT22;23763;48.130;11.602;2024-01-25T11:18:59;9.40;99.90
37938;DHT22;23763;48.130;11.602;2024-01-25T11:21:46;9.40;99.90
37938;DHT22;23763;48.130;11.602;2024-01-25T11:26:45;9.50;99.90
37938;DHT22;23763;48.130;11.602;2024-01-25T11:29:15;9.40;99.90
37938;DHT22;23763;48.130;11.602;2024-01-25T11:31:43;9.50;99.90
37938;DHT22;23763;48.130;11.602;2024-01-25T11:34:10;9.50;99.90
37938;DHT22;23763;48.130;11.602;2024-01-25T11:36:37;9.40;99.90
37938;DHT22;23763;48.130;11.602;2024-01-25T11:39:03;9.40;99.90
37938;DHT22;23763;48.130;11.602;2024-01-25T11:41:30;9.50;99.90
37938;DHT22;23763;48.130;11.602;2024-01-25T11:43:56;9.50;99.90
37938;DHT22;23763;48.130;11.602;2024-01-25T11:46:22;9.50;99.90
37938;DHT22;23763;48.130;11.602;2024-01-25T11:48:48;9.50;99.90
37938;DHT22;23763;48.130;11.602;2024-01-25T11:51:13;9.50;99.90
37938;DHT22;23763;48.130;11.602;2024-01-25T11:53:40;9.50;99.90
37938;DHT22;23763;48.130;11.602;2024-01-25T11:56:09;9.60;99.90
37938;DHT22;23763;48.130;11.602;2024-01-25T11:58:37;9.60;99.90
37938;DHT22;23763;48.130;11.602;2024-01-25T12:01:05;9.70;99.90
37938;DHT22;23763;48.130;11.602;2024-01-25T12:03:34;9.80;99.90
37938;DHT22;23763;48.130;11.602;2024-01-25T12:06:01;9.90;99.90
37938;DHT22;23763;48.130;11.602;2024-01-25T12:08:27;10.00;99.90
37938;DHT22;23763;48.130;11.602;2024-01-25T12:11:06;10.10;99.90
37938;DHT22;23763;48.130;11.602;2024-01-25T12:13:33;10.10;99.90
37938;DHT22;23763;48.130;11.602;2024-01-25T12:15:59;10.20;99.90
37938;DHT22;23763;48.130;11.602;2024-01-25T12:18:26;10.20;99.90
37938;DHT22;23763;48.130;11.602;2024-01-25T12:20:52;10.10;99.90
37938;DHT22;23763;48.130;11.602;2024-01-25T12:23:18;10.20;99.90
37938;DHT22;23763;48.130;11.602;2024-01-25T12:25:45;10.20;99.90
37938;DHT22;23763;48.130;11.602;2024-01-25T12:28:11;10.20;99.90
37938;DHT22;23763;48.130;11.602;2024-01-25T12:30:37;10.30;99.90
37938;DHT22;23763;48.130;11.602;2024-01-25T12:33:03;10.30;99.90
37938;DHT22;23763;48.130;11.602;2024-01-25T12:35:29;10.20;99.90
37938;DHT22;23763;48.130;11.602;2024-01-25T12:37:54;10.40;99.90
37938;DHT22;23763;48.130;11.602;2024-01-25T12:40:20;10.50;99.90
37938;DHT22;23763;48.130;11.602;2024-01-25T12:42:46;10.80;99.90
37938;DHT22;23763;48.130;11.602;2024-01-25T12:45:11;10.80;99.90
37938;DHT22;23763;48.130;11.602;2024-01-25T12:47:37;10.90;99.90
37938;DHT22;23763;48.130;11.602;2024-01-25T12:50:03;10.70;99.90
37938;DHT22;23763;48.130;11.602;2024-01-25T12:52:29;10.50;99.90
37938;DHT22;23763;48.130;11.602;2024-01-25T12:54:55;10.30;99.90
37938;DHT22;23763;48.130;11.602;2024-01-25T12:57:21;10.40;99.90
37938;DHT22;23763;48.130;11.602;2024-01-25T12:59:47;10.30;99.90
37938;DHT22;23763;48.130;11.602;2024-01-25T13:02:13;10.40;99.90
37938;DHT22;23763;48.130;11.602;2024-01-25T13:04:38;10.40;99.90
37938;DHT22;23763;48.130;11.602;2024-01-25T13:07:04;10.40;99.90
37938;DHT22;23763;48.130;11.602;2024-01-25T13:09:30;10.30;99.90
37938;DHT22;23763;48.130;11.602;2024-01-25T13:11:59;10.30;99.90
37938;DHT22;23763;48.130;11.602;2024-01-25T13:14:26;10.30;99.90
37938;DHT22;23763;48.130;11.602;2024-01-25T13:16:52;10.30;99.90
37938;DHT22;23763;48.130;11.602;2024-01-25T13:19:18;10.40;99.90
37938;DHT22;23763;48.130;11.602;2024-01-25T13:21:43;10.50;99.90
37938;DHT22;23763;48.130;11.602;2024-01-25T13:24:09;10.50;99.90
37938;DHT22;23763;48.130;11.602;2024-01-25T13:26:36;10.50;99.90
37938;DHT22;23763;48.130;11.602;2024-01-25T13:29:02;10.50;99.90
37938;DHT22;23763;48.130;11.602;2024-01-25T13:31:28;10.50;99.90
37938;DHT22;23763;48.130;11.602;2024-01-25T13:33:53;10.50;99.90
37938;DHT22;23763;48.130;11.602;2024-01-25T13:36:19;10.50;99.90
37938;DHT22;23763;48.130;11.602;2024-01-25T13:38:45;10.60;99.90
37938;DHT22;23763;48.130;11.602;2024-01-25T13:41:11;10.60;99.90
37938;DHT22;23763;48.130;11.602;2024-01-25T13:43:36;10.70;99.90
37938;DHT22;23763;48.130;11.602;2024-01-25T13:46:02;10.70;99.90
37938;DHT22;23763;48.130;11.602;2024-01-25T13:48:28;10.70;99.90
37938;DHT22;23763;48.130;11.602;2024-01-25T13:50:53;10.70;99.90
37938;DHT22;23763;48.130;11.602;2024-01-25T13:53:19;10.60;99.90
37938;DHT22;23763;48.130;11.602;2024-01-25T13:55:45;10.60;99.90
37938;DHT22;23763;48.130;11.602;2024-01-25T13:58:12;10.50;99.90
37938;DHT22;23763;48.130;11.602;2024-01-25T14:00:37;10.50;99.90
37938;DHT22;23763;48.130;11.602;2024-01-25T14:03:03;10.50;99.90
37938;DHT22;23763;48.130;11.602;2024-01-25T14:05:29;10.40;99.90
37938;DHT22;23763;48.130;11.602;2024-01-25T14:07:55;10.50;99.90
37938;DHT22;23763;48.130;11.602;2024-01-25T14:10:20;10.50;99.90
37938;DHT22;23763;48.130;11.602;2024-01-25T14:12:46;10.50;99.90
37938;DHT22;23763;48.130;11.602;2024-01-25T14:15:13;10.50;99.90
37938;DHT22;23763;48.130;11.602;2024-01-25T14:17:38;10.40;99.90
37938;DHT22;23763;48.130;11.602;2024-01-25T14:20:05;10.40;99.90
37938;DHT22;23763;48.130;11.602;2024-01-25T14:22:31;10.40;99.90
37938;DHT22;23763;48.130;11.602;2024-01-25T14:24:56;10.40;99.90
37938;DHT22;23763;48.130;11.602;2024-01-25T14:27:22;10.50;99.90
37938;DHT22;23763;48.130;11.602;2024-01-25T14:29:48;10.50;99.90
37938;DHT22;23763;48.130;11.602;2024-01-25T14:32:13;10.50;99.90
37938;DHT22;23763;48.130;11.602;2024-01-25T14:34:39;10.60;99.90
37938;DHT22;23763;48.130;11.602;2024-01-25T14:37:06;10.50;99.90
37938;DHT22;23763;48.130;11.602;2024-01-25T14:39:31;10.50;99.90
37938;DHT22;23763;48.130;11.602;2024-01-25T14:41:57;10.50;99.90
37938;DHT22;23763;48.130;11.602;2024-01-25T14:44:23;10.40;99.90
37938;DHT22;23763;48.130;11.602;2024-01-25T14:46:49;10.30;99.90
37938;DHT22;23763;48.130;11.602;2024-01-25T14:49:14;10.30;99.90
37938;DHT22;23763;48.130;11.602;2024-01-25T14:51:40;10.30;99.90
37938;DHT22;23763;48.130;11.602;2024-01-25T14:54:06;10.20;99.90
37938;DHT22;23763;48.130;11.602;2024-01-25T14:56:32;10.10;99.90
37938;DHT22;23763;48.130;11.602;2024-01-25T14:58:58;10.10;99.90
37938;DHT22;23763;48.130;11.602;2024-01-25T15:01:23;10.10;99.90
37938;DHT22;23763;48.130;11.602;2024-01-25T15:03:54;10.10;99.90
37938;DHT22;23763;48.130;11.602;2024-01-25T15:06:21;10.00;99.90
37938;DHT22;23763;48.130;11.602;2024-01-25T15:08:47;10.00;99.90
37938;DHT22;23763;48.130;11.602;2024-01-25T15:11:13;10.00;99.90
37938;DHT22;23763;48.130;11.602;2024-01-25T15:13:38;10.00;99.90
37938;DHT22;23763;48.130;11.602;2024-01-25T15:16:04;9.90;99.90
37938;DHT22;23763;48.130;11.602;2024-01-25T15:18:33;9.90;99.90
37938;DHT22;23763;48.130;11.602;2024-01-25T15:20:59;9.90;99.90
37938;DHT22;23763;48.130;11.602;2024-01-25T15:23:25;9.90;99.90
37938;DHT22;23763;48.130;11.602;2024-01-25T15:25:51;9.90;99.90